sensor_id;sensor_type;location;lat;lon;timestamp;temperature;humidity
14995;DHT22;7593;49.006;8.372;2023-07-29T00:01:42;17.60;99.90
14995;DHT22;7593;49.006;8.372;2023-07-29T00:04:09;17.60;99.90
14995;DHT22;7593;49.006;8.372;2023-07-29T00:06:36;17.60;99.90
14995;DHT22;7593;49.006;8.372;2023-07-29T00:09:02;17.70;99.90
14995;DHT22;7593;49.006;8.372;2023-07-29T00:11:29;17.70;99.90
14995;DHT22;7593;49.006;8.372;2023-07-29T00:14:00;17.70;99.90
14995;DHT22;7593;49.006;8.372;2023-07-29T00:16:27;17.70;99.90
14995;DHT22;7593;49.006;8.372;2023-07-29T00:18:54;17.70;99.90
14995;DHT22;7593;49.006;8.372;2023-07-29T00:21:20;17.70;99.90
14995;DHT22;7593;49.006;8.372;2023-07-29T00:23:47;17.70;99.90
14995;DHT22;7593;49.006;8.372;2023-07-29T00:26:14;17.70;99.90
14995;DHT22;7593;49.006;8.372;2023-07-29T00:28:40;17.70;99.90
14995;DHT22;7593;49.006;8.372;2023-07-29T00:31:09;17.70;99.90
14995;DHT22;7593;49.006;8.372;2023-07-29T00:33:36;17.70;99.90
14995;DHT22;7593;49.006;8.372;2023-07-29T00:36:03;17.70;99.90
14995;DHT22;7593;49.006;8.372;2023-07-29T00:38:30;17.80;99.90
14995;DHT22;7593;49.006;8.372;2023-07-29T00:40:57;17.80;99.90
14995;DHT22;7593;49.006;8.372;2023-07-29T00:43:24;17.80;99.90
14995;DHT22;7593;49.006;8.372;2023-07-29T00:45:51;17.80;99.90
14995;DHT22;7593;49.006;8.372;2023-07-29T00:48:19;17.80;99.90
14995;DHT22;7593;49.006;8.372;2023-07-29T00:50:46;17.80;99.90
14995;DHT22;7593;49.006;8.372;2023-07-29T00:53:16;17.80;99.90
14995;DHT22;7593;49.006;8.372;2023-07-29T00:55:43;17.80;99.90
14995;DHT22;7593;49.006;8.372;2023-07-29T00:58:10;17.80;99.90
14995;DHT22;7593;49.006;8.372;2023-07-29T01:00:37;17.80;99.90
14995;DHT22;7593;49.006;8.372;2023-07-29T01:03:03;17.70;99.90
14995;DHT22;7593;49.006;8.372;2023-07-29T01:05:39;17.70;99.90
14995;DHT22;7593;49.006;8.372;2023-07-29T01:08:13;17.70;99.90
14995;DHT22;7593;49.006;8.372;2023-07-29T01:10:49;17.70;99.90
14995;DHT22;7593;49.006;8.372;2023-07-29T01:13:22;17.60;99.90
14995;DHT22;7593;49.006;8.372;2023-07-29T01:15:54;17.60;99.90
14995;DHT22;7593;49.006;8.372;2023-07-29T01:18:23;17.60;99.90
14995;DHT22;7593;49.006;8.372;2023-07-29T01:20:54;17.50;99.90
14995;DHT22;7593;49.006;8.372;2023-07-29T01:23:26;17.50;99.90
14995;DHT22;7593;49.006;8.372;2023-07-29T01:25:52;17.50;99.90
14995;DHT22;7593;49.006;8.372;2023-07-29T01:28:19;17.50;99.90
14995;DHT22;7593;49.006;8.372;2023-07-29T01:30:49;17.50;99.90
14995;DHT22;7593;49.006;8.372;2023-07-29T01:33:18;17.40;99.90
14995;DHT22;7593;49.006;8.372;2023-07-29T01:35:48;17.40;99.90
14995;DHT22;7593;49.006;8.372;2023-07-29T01:38:18;17.40;99.90
14995;DHT22;7593;49.006;8.372;2023-07-29T01:40:48;17.40;99.90
14995;DHT22;7593;49.006;8.372;2023-07-29T01:43:17;17.40;99.90
14995;DHT22;7593;49.006;8.372;2023-07-29T01:45:44;17.30;99.90
14995;DHT22;7593;49.006;8.372;2023-07-29T01:48:11;17.20;99.90
14995;DHT22;7593;49.006;8.372;2023-07-29T01:50:37;17.30;99.90
14995;DHT22;7593;49.006;8.372;2023-07-29T01:53:04;17.30;99.90
14995;DHT22;7593;49.006;8.372;2023-07-29T01:55:31;17.30;99.90
14995;DHT22;7593;49.006;8.372;2023-07-29T01:57:59;17.30;99.90
14995;DHT22;7593;49.006;8.372;2023-07-29T02:00:25;17.30;99.90
14995;DHT22;7593;49.006;8.372;2023-07-29T02:02:52;17.30;99.90
14995;DHT22;7593;49.006;8.372;2023-07-29T02:05:19;17.30;99.90
14995;DHT22;7593;49.006;8.372;2023-07-29T02:07:45;17.30;99.90
14995;DHT22;7593;49.006;8.372;2023-07-29T02:10:12;17.30;99.90
14995;DHT22;7593;49.006;8.372;2023-07-29T02:12:39;17.30;99.90
14995;DHT22;7593;49.006;8.372;2023-07-29T02:15:08;17.30;99.90
14995;DHT22;7593;49.006;8.372;2023-07-29T02:17:36;17.30;99.90
14995;DHT22;7593;49.006;8.372;2023-07-29T02:20:03;17.30;99.90
14995;DHT22;7593;49.006;8.372;2023-07-29T02:22:31;17.30;99.90
14995;DHT22;7593;49.006;8.372;2023-07-29T02:24:58;17.40;99.90
14995;DHT22;7593;49.006;8.372;2023-07-29T02:27:24;17.40;99.90
14995;DHT22;7593;49.006;8.372;2023-07-29T02:29:52;17.40;99.90
14995;DHT22;7593;49.006;8.372;2023-07-29T02:32:21;17.40;99.90
14995;DHT22;7593;49.006;8.372;2023-07-29T02:34:49;17.40;99.90
14995;DHT22;7593;49.006;8.372;2023-07-29T02:37:15;17.40;99.90
14995;DHT22;7593;49.006;8.372;2023-07-29T02:39:43;17.40;99.90
14995;DHT22;7593;49.006;8.372;2023-07-29T02:42:09;17.50;99.90
14995;DHT22;7593;49.006;8.372;2023-07-29T02:44:36;17.50;99.90
14995;DHT22;7593;49.006;8.372;2023-07-29T02:47:03;17.50;99.90
14995;DHT22;7593;49.006;8.372;2023-07-29T02:49:31;17.60;99.90
14995;DHT22;7593;49.006;8.372;2023-07-29T02:51:58;17.60;99.90
14995;DHT22;7593;49.006;8.372;2023-07-29T02:54:25;17.60;99.90
14995;DHT22;7593;49.006;8.372;2023-07-29T02:56:51;17.60;99.90
14995;DHT22;7593;49.006;8.372;2023-07-29T02:59:18;17.60;99.90
14995;DHT22;7593;49.006;8.372;2023-07-29T03:01:45;17.60;99.90
14995;DHT22;7593;49.006;8.372;2023-07-29T03:04:12;17.60;99.90
14995;DHT22;7593;49.006;8.372;2023-07-29T03:06:40;17.60;99.90
14995;DHT22;7593;49.006;8.372;2023-07-29T03:09:08;17.60;99.90
14995;DHT22;7593;49.006;8.372;2023-07-29T03:11:35;17.60;99.90
14995;DHT22;7593;49.006;8.372;2023-07-29T03:14:01;17.60;99.90
14995;DHT22;7593;49.006;8.372;2023-07-29T03:16:28;17.60;99.90
14995;DHT22;7593;49.006;8.372;2023-07-29T03:18:55;17.50;99.90
14995;DHT22;7593;49.006;8.372;2023-07-29T03:21:23;17.50;99.90
14995;DHT22;7593;49.006;8.372;2023-07-29T03:23:51;17.50;99.90
14995;DHT22;7593;49.006;8.372;2023-07-29T03:26:18;17.40;99.90
14995;DHT22;7593;49.006;8.372;2023-07-29T03:28:44;17.40;99.90
14995;DHT22;7593;49.006;8.372;2023-07-29T03:31:11;17.40;99.90
14995;DHT22;7593;49.006;8.372;2023-07-29T03:33:38;17.40;99.90
14995;DHT22;7593;49.006;8.372;2023-07-29T03:36:05;17.40;99.90
14995;DHT22;7593;49.006;8.372;2023-07-29T03:38:31;17.40;99.90
14995;DHT22;7593;49.006;8.372;2023-07-29T03:41:02;17.40;99.90
14995;DHT22;7593;49.006;8.372;2023-07-29T03:43:28;17.40;99.90
14995;DHT22;7593;49.006;8.372;2023-07-29T03:45:55;17.50;99.90
14995;DHT22;7593;49.006;8.372;2023-07-29T03:48:22;17.40;99.90
14995;DHT22;7593;49.006;8.372;2023-07-29T03:50:49;17.40;99.90
14995;DHT22;7593;49.006;8.372;2023-07-29T03:53:15;17.40;99.90
14995;DHT22;7593;49.006;8.372;2023-07-29T03:55:42;17.40;99.90
14995;DHT22;7593;49.006;8.372;2023-07-29T03:58:10;17.40;99.90
14995;DHT22;7593;49.006;8.372;2023-07-29T04:00:37;17.20;99.90
14995;DHT22;7593;49.006;8.372;2023-07-29T04:03:04;17.10;99.90
14995;DHT22;7593;49.006;8.372;2023-07-29T04:05:30;17.00;99.90
14995;DHT22;7593;49.006;8.372;2023-07-29T04:07:57;17.10;99.90
14995;DHT22;7593;49.006;8.372;2023-07-29T04:10:24;17.10;99.90
14995;DHT22;7593;49.006;8.372;2023-07-29T04:12:51;17.10;99.90
14995;DHT22;7593;49.006;8.372;2023-07-29T04:15:19;17.20;99.90
14995;DHT22;7593;49.006;8.372;2023-07-29T04:17:45;17.30;99.90
14995;DHT22;7593;49.006;8.372;2023-07-29T04:20:12;17.40;99.90
14995;DHT22;7593;49.006;8.372;2023-07-29T04:22:39;17.40;99.90
14995;DHT22;7593;49.006;8.372;2023-07-29T04:25:06;17.50;99.90
14995;DHT22;7593;49.006;8.372;2023-07-29T04:27:33;17.50;99.90
14995;DHT22;7593;49.006;8.372;2023-07-29T04:30:00;17.60;99.90
14995;DHT22;7593;49.006;8.372;2023-07-29T04:32:28;17.60;99.90
14995;DHT22;7593;49.006;8.372;2023-07-29T04:34:54;17.60;99.90
14995;DHT22;7593;49.006;8.372;2023-07-29T04:37:21;17.60;99.90
14995;DHT22;7593;49.006;8.372;2023-07-29T04:39:48;17.60;99.90
14995;DHT22;7593;49.006;8.372;2023-07-29T04:42:14;17.60;99.90
14995;DHT22;7593;49.006;8.372;2023-07-29T04:44:41;17.60;99.90
14995;DHT22;7593;49.006;8.372;2023-07-29T04:47:08;17.60;99.90
14995;DHT22;7593;49.006;8.372;2023-07-29T04:49:36;17.60;99.90
14995;DHT22;7593;49.006;8.372;2023-07-29T04:52:04;17.60;99.90
14995;DHT22;7593;49.006;8.372;2023-07-29T04:54:30;17.60;99.90
14995;DHT22;7593;49.006;8.372;2023-07-29T04:56:57;17.60;99.90
14995;DHT22;7593;49.006;8.372;2023-07-29T04:59:24;17.60;99.90
14995;DHT22;7593;49.006;8.372;2023-07-29T05:01:51;17.60;99.90
14995;DHT22;7593;49.006;8.372;2023-07-29T05:04:17;17.60;99.90
14995;DHT22;7593;49.006;8.372;2023-07-29T05:06:45;17.60;99.90
14995;DHT22;7593;49.006;8.372;2023-07-29T05:09:13;17.60;99.90
14995;DHT22;7593;49.006;8.372;2023-07-29T05:11:41;17.60;99.90
14995;DHT22;7593;49.006;8.372;2023-07-29T05:14:09;17.60;99.90
14995;DHT22;7593;49.006;8.372;2023-07-29T05:16:36;17.60;99.90
14995;DHT22;7593;49.006;8.372;2023-07-29T05:19:02;17.60;99.90
14995;DHT22;7593;49.006;8.372;2023-07-29T05:21:29;17.60;99.90
14995;DHT22;7593;49.006;8.372;2023-07-29T05:23:57;17.70;99.90
14995;DHT22;7593;49.006;8.372;2023-07-29T05:26:24;17.70;99.90
14995;DHT22;7593;49.006;8.372;2023-07-29T05:28:51;17.70;99.90
14995;DHT22;7593;49.006;8.372;2023-07-29T05:31:18;17.70;99.90
14995;DHT22;7593;49.006;8.372;2023-07-29T05:33:45;17.70;99.90
14995;DHT22;7593;49.006;8.372;2023-07-29T05:36:11;17.80;99.90
14995;DHT22;7593;49.006;8.372;2023-07-29T05:38:38;17.80;99.90
14995;DHT22;7593;49.006;8.372;2023-07-29T05:41:06;17.90;99.90
14995;DHT22;7593;49.006;8.372;2023-07-29T05:43:33;18.00;99.90
14995;DHT22;7593;49.006;8.372;2023-07-29T05:46:00;18.00;99.90
14995;DHT22;7593;49.006;8.372;2023-07-29T05:48:27;18.10;99.90
14995;DHT22;7593;49.006;8.372;2023-07-29T05:50:54;18.10;99.90
14995;DHT22;7593;49.006;8.372;2023-07-29T05:53:20;18.20;99.90
14995;DHT22;7593;49.006;8.372;2023-07-29T05:55:47;18.20;99.90
14995;DHT22;7593;49.006;8.372;2023-07-29T05:58:15;18.30;99.90
14995;DHT22;7593;49.006;8.372;2023-07-29T06:00:42;18.30;99.90
14995;DHT22;7593;49.006;8.372;2023-07-29T06:03:09;18.30;99.90
14995;DHT22;7593;49.006;8.372;2023-07-29T06:05:35;18.40;99.90
14995;DHT22;7593;49.006;8.372;2023-07-29T06:08:02;18.40;99.90
14995;DHT22;7593;49.006;8.372;2023-07-29T06:10:29;18.40;99.90
14995;DHT22;7593;49.006;8.372;2023-07-29T06:12:56;18.40;99.90
14995;DHT22;7593;49.006;8.372;2023-07-29T06:15:24;18.40;99.90
14995;DHT22;7593;49.006;8.372;2023-07-29T06:17:51;18.40;99.90
14995;DHT22;7593;49.006;8.372;2023-07-29T06:20:17;18.40;99.90
14995;DHT22;7593;49.006;8.372;2023-07-29T06:22:44;18.30;99.90
14995;DHT22;7593;49.006;8.372;2023-07-29T06:25:11;18.30;99.90
14995;DHT22;7593;49.006;8.372;2023-07-29T06:27:38;18.30;99.90
14995;DHT22;7593;49.006;8.372;2023-07-29T06:30:05;18.30;99.90
14995;DHT22;7593;49.006;8.372;2023-07-29T06:32:34;18.30;99.90
14995;DHT22;7593;49.006;8.372;2023-07-29T06:35:01;18.30;99.90
14995;DHT22;7593;49.006;8.372;2023-07-29T06:37:27;18.30;99.90
14995;DHT22;7593;49.006;8.372;2023-07-29T06:39:54;18.40;99.90
14995;DHT22;7593;49.006;8.372;2023-07-29T06:42:21;18.40;99.90
14995;DHT22;7593;49.006;8.372;2023-07-29T06:44:47;18.40;99.90
14995;DHT22;7593;49.006;8.372;2023-07-29T06:47:14;18.40;99.90
14995;DHT22;7593;49.006;8.372;2023-07-29T06:49:42;18.40;99.90
14995;DHT22;7593;49.006;8.372;2023-07-29T06:52:09;18.40;99.90
14995;DHT22;7593;49.006;8.372;2023-07-29T06:54:35;18.40;99.90
14995;DHT22;7593;49.006;8.372;2023-07-29T06:57:03;18.40;99.90
14995;DHT22;7593;49.006;8.372;2023-07-29T06:59:29;18.40;99.90
14995;DHT22;7593;49.006;8.372;2023-07-29T07:01:56;18.40;99.90
14995;DHT22;7593;49.006;8.372;2023-07-29T07:04:23;18.40;99.90
14995;DHT22;7593;49.006;8.372;2023-07-29T07:06:51;18.40;99.90
14995;DHT22;7593;49.006;8.372;2023-07-29T07:09:18;18.40;99.90
14995;DHT22;7593;49.006;8.372;2023-07-29T07:11:46;18.40;99.90
14995;DHT22;7593;49.006;8.372;2023-07-29T07:14:13;18.40;99.90
14995;DHT22;7593;49.006;8.372;2023-07-29T07:16:39;18.50;99.90
14995;DHT22;7593;49.006;8.372;2023-07-29T07:19:06;18.50;99.90
14995;DHT22;7593;49.006;8.372;2023-07-29T07:21:33;18.60;99.90
14995;DHT22;7593;49.006;8.372;2023-07-29T07:24:01;18.70;99.90
14995;DHT22;7593;49.006;8.372;2023-07-29T07:26:28;18.70;99.90
14995;DHT22;7593;49.006;8.372;2023-07-29T07:28:54;18.80;99.90
14995;DHT22;7593;49.006;8.372;2023-07-29T07:31:22;18.90;99.90
14995;DHT22;7593;49.006;8.372;2023-07-29T07:33:49;19.00;99.90
14995;DHT22;7593;49.006;8.372;2023-07-29T07:36:15;19.00;99.90
14995;DHT22;7593;49.006;8.372;2023-07-29T07:38:42;19.10;99.90
14995;DHT22;7593;49.006;8.372;2023-07-29T07:41:10;19.20;99.90
14995;DHT22;7593;49.006;8.372;2023-07-29T07:43:37;19.20;99.90
14995;DHT22;7593;49.006;8.372;2023-07-29T07:46:04;19.30;99.90
14995;DHT22;7593;49.006;8.372;2023-07-29T07:48:31;19.40;99.90
14995;DHT22;7593;49.006;8.372;2023-07-29T07:50:58;19.50;99.90
14995;DHT22;7593;49.006;8.372;2023-07-29T07:53:25;19.50;99.90
14995;DHT22;7593;49.006;8.372;2023-07-29T07:55:52;19.50;99.90
14995;DHT22;7593;49.006;8.372;2023-07-29T07:58:20;19.60;99.90
14995;DHT22;7593;49.006;8.372;2023-07-29T08:00:47;19.60;99.90
14995;DHT22;7593;49.006;8.372;2023-07-29T08:03:13;19.70;99.90
14995;DHT22;7593;49.006;8.372;2023-07-29T08:05:40;19.70;99.90
14995;DHT22;7593;49.006;8.372;2023-07-29T08:08:07;19.70;99.90
14995;DHT22;7593;49.006;8.372;2023-07-29T08:10:33;19.70;99.90
14995;DHT22;7593;49.006;8.372;2023-07-29T08:13:00;19.80;99.90
14995;DHT22;7593;49.006;8.372;2023-07-29T08:15:28;19.80;99.90
14995;DHT22;7593;49.006;8.372;2023-07-29T08:17:55;19.80;99.90
14995;DHT22;7593;49.006;8.372;2023-07-29T08:20:22;19.80;99.90
14995;DHT22;7593;49.006;8.372;2023-07-29T08:22:48;19.80;99.90
14995;DHT22;7593;49.006;8.372;2023-07-29T08:25:15;19.80;99.90
14995;DHT22;7593;49.006;8.372;2023-07-29T08:27:42;19.70;99.90
14995;DHT22;7593;49.006;8.372;2023-07-29T08:30:09;19.70;99.90
14995;DHT22;7593;49.006;8.372;2023-07-29T08:32:37;19.70;99.90
14995;DHT22;7593;49.006;8.372;2023-07-29T08:35:04;19.70;99.90
14995;DHT22;7593;49.006;8.372;2023-07-29T08:37:31;19.60;99.90
14995;DHT22;7593;49.006;8.372;2023-07-29T08:39:58;19.60;99.90
14995;DHT22;7593;49.006;8.372;2023-07-29T08:42:29;19.50;99.90
14995;DHT22;7593;49.006;8.372;2023-07-29T08:45:07;19.50;99.90
14995;DHT22;7593;49.006;8.372;2023-07-29T08:47:34;19.50;99.90
14995;DHT22;7593;49.006;8.372;2023-07-29T08:50:03;19.60;99.90
14995;DHT22;7593;49.006;8.372;2023-07-29T08:52:30;19.60;99.90
14995;DHT22;7593;49.006;8.372;2023-07-29T08:54:58;19.50;99.90
14995;DHT22;7593;49.006;8.372;2023-07-29T08:57:25;19.40;99.90
14995;DHT22;7593;49.006;8.372;2023-07-29T08:59:54;19.40;99.90
14995;DHT22;7593;49.006;8.372;2023-07-29T09:02:22;19.40;99.90
14995;DHT22;7593;49.006;8.372;2023-07-29T09:04:48;19.40;99.90
14995;DHT22;7593;49.006;8.372;2023-07-29T09:07:17;19.40;99.90
14995;DHT22;7593;49.006;8.372;2023-07-29T09:09:44;19.40;99.90
14995;DHT22;7593;49.006;8.372;2023-07-29T09:12:11;19.60;99.90
14995;DHT22;7593;49.006;8.372;2023-07-29T09:14:38;19.60;99.90
14995;DHT22;7593;49.006;8.372;2023-07-29T09:17:07;19.60;99.90
14995;DHT22;7593;49.006;8.372;2023-07-29T09:19:35;19.70;99.90
14995;DHT22;7593;49.006;8.372;2023-07-29T09:22:01;19.80;99.90
14995;DHT22;7593;49.006;8.372;2023-07-29T09:24:30;20.10;99.90
14995;DHT22;7593;49.006;8.372;2023-07-29T09:26:57;20.70;99.90
14995;DHT22;7593;49.006;8.372;2023-07-29T09:29:28;21.20;99.90
14995;DHT22;7593;49.006;8.372;2023-07-29T09:32:17;21.20;99.90
14995;DHT22;7593;49.006;8.372;2023-07-29T09:34:44;21.20;99.90
14995;DHT22;7593;49.006;8.372;2023-07-29T09:37:15;21.30;99.90
14995;DHT22;7593;49.006;8.372;2023-07-29T09:39:45;21.30;99.90
14995;DHT22;7593;49.006;8.372;2023-07-29T09:42:17;21.30;99.90
14995;DHT22;7593;49.006;8.372;2023-07-29T09:44:44;21.20;99.90
14995;DHT22;7593;49.006;8.372;2023-07-29T09:47:19;21.10;99.90
14995;DHT22;7593;49.006;8.372;2023-07-29T09:49:47;21.00;99.90
14995;DHT22;7593;49.006;8.372;2023-07-29T09:52:15;20.90;99.90
14995;DHT22;7593;49.006;8.372;2023-07-29T09:54:42;20.80;99.90
14995;DHT22;7593;49.006;8.372;2023-07-29T09:57:11;20.80;99.90
14995;DHT22;7593;49.006;8.372;2023-07-29T09:59:39;20.80;99.90
14995;DHT22;7593;49.006;8.372;2023-07-29T10:02:09;21.10;99.90
14995;DHT22;7593;49.006;8.372;2023-07-29T10:04:40;21.30;99.90
14995;DHT22;7593;49.006;8.372;2023-07-29T10:07:08;21.40;99.90
14995;DHT22;7593;49.006;8.372;2023-07-29T10:09:36;21.30;99.90
14995;DHT22;7593;49.006;8.372;2023-07-29T10:12:07;21.20;99.90
14995;DHT22;7593;49.006;8.372;2023-07-29T10:14:37;21.10;99.90
14995;DHT22;7593;49.006;8.372;2023-07-29T10:17:05;21.20;99.90
14995;DHT22;7593;49.006;8.372;2023-07-29T10:19:32;21.20;99.90
14995;DHT22;7593;49.006;8.372;2023-07-29T10:22:00;21.10;99.90
14995;DHT22;7593;49.006;8.372;2023-07-29T10:24:30;21.00;99.90
14995;DHT22;7593;49.006;8.372;2023-07-29T10:26:58;21.00;99.90
14995;DHT22;7593;49.006;8.372;2023-07-29T10:29:30;21.10;99.90
14995;DHT22;7593;49.006;8.372;2023-07-29T10:32:02;21.10;99.90
14995;DHT22;7593;49.006;8.372;2023-07-29T10:34:30;21.20;99.90
14995;DHT22;7593;49.006;8.372;2023-07-29T10:36:58;21.40;99.90
14995;DHT22;7593;49.006;8.372;2023-07-29T10:39:25;21.80;99.90
14995;DHT22;7593;49.006;8.372;2023-07-29T10:41:56;22.40;99.90
14995;DHT22;7593;49.006;8.372;2023-07-29T10:44:45;22.90;99.90
14995;DHT22;7593;49.006;8.372;2023-07-29T10:47:17;23.30;99.90
14995;DHT22;7593;49.006;8.372;2023-07-29T10:49:45;23.70;99.90
14995;DHT22;7593;49.006;8.372;2023-07-29T10:52:13;24.10;99.90
14995;DHT22;7593;49.006;8.372;2023-07-29T10:54:46;24.40;99.90
14995;DHT22;7593;49.006;8.372;2023-07-29T10:57:13;24.80;99.90
14995;DHT22;7593;49.006;8.372;2023-07-29T10:59:41;25.00;99.90
14995;DHT22;7593;49.006;8.372;2023-07-29T11:02:17;25.10;99.90
14995;DHT22;7593;49.006;8.372;2023-07-29T11:04:49;25.20;99.90
14995;DHT22;7593;49.006;8.372;2023-07-29T11:09:58;25.30;99.90
14995;DHT22;7593;49.006;8.372;2023-07-29T11:12:42;25.20;99.90
14995;DHT22;7593;49.006;8.372;2023-07-29T11:15:19;25.50;99.90
14995;DHT22;7593;49.006;8.372;2023-07-29T11:17:48;25.60;99.90
14995;DHT22;7593;49.006;8.372;2023-07-29T11:20:15;25.80;99.90
14995;DHT22;7593;49.006;8.372;2023-07-29T11:22:43;25.90;99.90
14995;DHT22;7593;49.006;8.372;2023-07-29T11:25:11;25.90;99.90
14995;DHT22;7593;49.006;8.372;2023-07-29T11:27:38;25.70;99.90
14995;DHT22;7593;49.006;8.372;2023-07-29T11:30:07;25.60;99.90
14995;DHT22;7593;49.006;8.372;2023-07-29T11:32:35;25.70;99.90
14995;DHT22;7593;49.006;8.372;2023-07-29T11:35:04;25.60;99.90
14995;DHT22;7593;49.006;8.372;2023-07-29T11:37:33;25.50;99.90
14995;DHT22;7593;49.006;8.372;2023-07-29T11:40:00;25.80;99.90
14995;DHT22;7593;49.006;8.372;2023-07-29T11:42:28;26.20;99.90
14995;DHT22;7593;49.006;8.372;2023-07-29T11:44:56;26.30;99.90
14995;DHT22;7593;49.006;8.372;2023-07-29T11:47:24;25.90;99.90
14995;DHT22;7593;49.006;8.372;2023-07-29T11:49:51;25.50;99.90
14995;DHT22;7593;49.006;8.372;2023-07-29T11:52:19;25.40;99.90
14995;DHT22;7593;49.006;8.372;2023-07-29T11:54:49;25.20;99.90
14995;DHT22;7593;49.006;8.372;2023-07-29T11:57:16;25.20;99.90
14995;DHT22;7593;49.006;8.372;2023-07-29T11:59:44;25.30;99.90
14995;DHT22;7593;49.006;8.372;2023-07-29T12:02:12;25.60;99.90
14995;DHT22;7593;49.006;8.372;2023-07-29T12:04:40;26.00;99.90
14995;DHT22;7593;49.006;8.372;2023-07-29T12:07:07;26.60;99.90
14995;DHT22;7593;49.006;8.372;2023-07-29T12:09:36;27.10;99.90
14995;DHT22;7593;49.006;8.372;2023-07-29T12:12:04;27.20;99.90
14995;DHT22;7593;49.006;8.372;2023-07-29T12:14:31;27.40;99.90
14995;DHT22;7593;49.006;8.372;2023-07-29T12:17:00;27.70;99.90
14995;DHT22;7593;49.006;8.372;2023-07-29T12:19:32;27.90;99.90
14995;DHT22;7593;49.006;8.372;2023-07-29T12:21:59;28.30;99.90
14995;DHT22;7593;49.006;8.372;2023-07-29T12:24:26;28.40;99.90
14995;DHT22;7593;49.006;8.372;2023-07-29T12:26:54;28.50;99.90
14995;DHT22;7593;49.006;8.372;2023-07-29T12:29:21;28.50;99.90
14995;DHT22;7593;49.006;8.372;2023-07-29T12:31:48;28.40;99.90
14995;DHT22;7593;49.006;8.372;2023-07-29T12:34:19;28.70;99.90
14995;DHT22;7593;49.006;8.372;2023-07-29T12:36:47;29.20;99.90
14995;DHT22;7593;49.006;8.372;2023-07-29T12:39:19;29.20;99.90
14995;DHT22;7593;49.006;8.372;2023-07-29T12:41:46;29.50;99.90
14995;DHT22;7593;49.006;8.372;2023-07-29T12:44:14;29.60;99.90
14995;DHT22;7593;49.006;8.372;2023-07-29T12:46:42;29.40;99.90
14995;DHT22;7593;49.006;8.372;2023-07-29T12:49:08;29.40;99.90
14995;DHT22;7593;49.006;8.372;2023-07-29T12:51:35;29.30;99.90
14995;DHT22;7593;49.006;8.372;2023-07-29T12:54:03;29.00;99.90
14995;DHT22;7593;49.006;8.372;2023-07-29T12:56:29;28.90;99.90
14995;DHT22;7593;49.006;8.372;2023-07-29T12:58:56;28.60;99.90
14995;DHT22;7593;49.006;8.372;2023-07-29T13:01:25;28.50;99.90
14995;DHT22;7593;49.006;8.372;2023-07-29T13:03:52;28.50;99.90
14995;DHT22;7593;49.006;8.372;2023-07-29T13:06:18;28.90;99.90
14995;DHT22;7593;49.006;8.372;2023-07-29T13:08:45;29.10;99.90
14995;DHT22;7593;49.006;8.372;2023-07-29T13:11:12;29.10;99.90
14995;DHT22;7593;49.006;8.372;2023-07-29T13:13:39;28.90;99.90
14995;DHT22;7593;49.006;8.372;2023-07-29T13:16:06;28.70;99.90
14995;DHT22;7593;49.006;8.372;2023-07-29T13:18:34;28.70;99.90
14995;DHT22;7593;49.006;8.372;2023-07-29T13:21:01;28.90;99.90
14995;DHT22;7593;49.006;8.372;2023-07-29T13:23:28;29.00;99.90
14995;DHT22;7593;49.006;8.372;2023-07-29T13:25:55;29.30;99.90
14995;DHT22;7593;49.006;8.372;2023-07-29T13:28:24;29.60;99.90
14995;DHT22;7593;49.006;8.372;2023-07-29T13:30:51;30.10;99.90
14995;DHT22;7593;49.006;8.372;2023-07-29T13:33:17;30.60;99.90
14995;DHT22;7593;49.006;8.372;2023-07-29T13:35:45;31.00;99.90
14995;DHT22;7593;49.006;8.372;2023-07-29T13:38:12;31.00;99.90
14995;DHT22;7593;49.006;8.372;2023-07-29T13:40:39;30.80;99.30
14995;DHT22;7593;49.006;8.372;2023-07-29T13:43:06;30.70;99.30
14995;DHT22;7593;49.006;8.372;2023-07-29T13:45:35;30.60;99.30
14995;DHT22;7593;49.006;8.372;2023-07-29T13:48:03;30.60;99.90
14995;DHT22;7593;49.006;8.372;2023-07-29T13:50:29;30.60;99.90
14995;DHT22;7593;49.006;8.372;2023-07-29T13:52:57;30.50;98.00
14995;DHT22;7593;49.006;8.372;2023-07-29T13:55:24;30.40;98.70
14995;DHT22;7593;49.006;8.372;2023-07-29T13:57:52;30.80;98.60
14995;DHT22;7593;49.006;8.372;2023-07-29T14:00:19;31.10;98.00
14995;DHT22;7593;49.006;8.372;2023-07-29T14:02:46;31.30;97.30
14995;DHT22;7593;49.006;8.372;2023-07-29T14:05:12;31.50;96.90
14995;DHT22;7593;49.006;8.372;2023-07-29T14:07:39;31.30;97.00
14995;DHT22;7593;49.006;8.372;2023-07-29T14:10:08;31.10;97.30
14995;DHT22;7593;49.006;8.372;2023-07-29T14:12:34;30.80;97.50
14995;DHT22;7593;49.006;8.372;2023-07-29T14:15:02;30.60;97.50
14995;DHT22;7593;49.006;8.372;2023-07-29T14:17:29;30.50;97.70
14995;DHT22;7593;49.006;8.372;2023-07-29T14:19:56;30.40;98.10
14995;DHT22;7593;49.006;8.372;2023-07-29T14:22:23;30.60;97.90
14995;DHT22;7593;49.006;8.372;2023-07-29T14:24:49;30.70;97.90
14995;DHT22;7593;49.006;8.372;2023-07-29T14:27:18;30.50;97.60
14995;DHT22;7593;49.006;8.372;2023-07-29T14:29:44;29.90;98.00
14995;DHT22;7593;49.006;8.372;2023-07-29T14:32:11;29.40;99.00
14995;DHT22;7593;49.006;8.372;2023-07-29T14:34:38;28.90;99.20
14995;DHT22;7593;49.006;8.372;2023-07-29T14:37:05;29.00;99.70
14995;DHT22;7593;49.006;8.372;2023-07-29T14:39:32;29.10;99.40
14995;DHT22;7593;49.006;8.372;2023-07-29T14:41:59;28.90;98.90
14995;DHT22;7593;49.006;8.372;2023-07-29T14:44:27;28.90;99.30
14995;DHT22;7593;49.006;8.372;2023-07-29T14:46:54;28.60;99.50
14995;DHT22;7593;49.006;8.372;2023-07-29T14:49:21;28.50;99.90
14995;DHT22;7593;49.006;8.372;2023-07-29T14:51:47;28.60;99.90
14995;DHT22;7593;49.006;8.372;2023-07-29T14:54:14;28.50;99.90
14995;DHT22;7593;49.006;8.372;2023-07-29T14:56:41;28.70;99.90
14995;DHT22;7593;49.006;8.372;2023-07-29T14:59:08;28.70;99.90
14995;DHT22;7593;49.006;8.372;2023-07-29T15:01:36;28.70;99.90
14995;DHT22;7593;49.006;8.372;2023-07-29T15:04:03;28.80;99.90
14995;DHT22;7593;49.006;8.372;2023-07-29T15:06:30;28.60;99.90
14995;DHT22;7593;49.006;8.372;2023-07-29T15:08:56;28.80;99.90
14995;DHT22;7593;49.006;8.372;2023-07-29T15:11:23;29.30;99.60
14995;DHT22;7593;49.006;8.372;2023-07-29T15:13:50;29.70;99.20
14995;DHT22;7593;49.006;8.372;2023-07-29T15:16:17;29.80;98.80
14995;DHT22;7593;49.006;8.372;2023-07-29T15:18:45;29.90;98.10
14995;DHT22;7593;49.006;8.372;2023-07-29T15:21:11;29.80;98.50
14995;DHT22;7593;49.006;8.372;2023-07-29T15:23:38;29.80;98.60
14995;DHT22;7593;49.006;8.372;2023-07-29T15:26:05;29.70;98.40
14995;DHT22;7593;49.006;8.372;2023-07-29T15:28:31;29.50;98.60
14995;DHT22;7593;49.006;8.372;2023-07-29T15:30:58;29.20;98.60
14995;DHT22;7593;49.006;8.372;2023-07-29T15:33:25;28.90;99.90
14995;DHT22;7593;49.006;8.372;2023-07-29T15:35:53;28.70;99.90
14995;DHT22;7593;49.006;8.372;2023-07-29T15:38:20;28.40;99.90
14995;DHT22;7593;49.006;8.372;2023-07-29T15:40:47;28.50;99.90
14995;DHT22;7593;49.006;8.372;2023-07-29T15:43:16;28.50;99.90
14995;DHT22;7593;49.006;8.372;2023-07-29T15:45:43;28.30;99.90
14995;DHT22;7593;49.006;8.372;2023-07-29T15:48:10;28.40;99.90
14995;DHT22;7593;49.006;8.372;2023-07-29T15:50:37;28.60;99.90